KSPF/SPF METAR and TAF weather

Enter ICAO airport designator
Station Type Date Time Source
KSPF METAR 2021/09/20 04:55 UTC NOAA

KSPF 200455Z AUTO 25006KT 10SM BKN015 OVC030 10/08 A2992 RMK AO2 PWINO


Station Type Date Time Source
KSPF Decoded METAR 2021/09/20 04:55 UTC NOAA

Spearfish / Clyde Ice, SD, United States (KSPF) 44-29N 103-47W
Sep 20, 2021 - 12:55 AM EDT / 2021.09.20 0455 UTC
Wind: from the WSW (250 degrees) at 7 MPH (6 KT):0
Visibility: 10 mile(s):0
Sky conditions: overcast
Temperature: 50 F (10 C)
Dew Point: 46 F (8 C)
Relative Humidity: 87%
Pressure (altimeter): 29.92 in. Hg (1013 hPa)
ob: KSPF 200455Z AUTO 25006KT 10SM BKN015 OVC030 10/08 A2992 RMK AO2 PWINO
cycle: 5

Station Type Date Time Source
KSPF TAF UTC NOAA

Error!

Example: see airport list